sensor_id;sensor_type;location;lat;lon;timestamp;P1;durP1;ratioP1;P2;durP2;ratioP2
40621;SDS011;26324;52.040;11.528;2023-07-30T00:01:38;1.58;;;1.00;;
40621;SDS011;26324;52.040;11.528;2023-07-30T00:04:06;1.27;;;1.00;;
40621;SDS011;26324;52.040;11.528;2023-07-30T00:06:34;1.38;;;0.90;;
40621;SDS011;26324;52.040;11.528;2023-07-30T00:09:01;3.25;;;0.90;;
40621;SDS011;26324;52.040;11.528;2023-07-30T00:11:28;2.95;;;0.90;;
40621;SDS011;26324;52.040;11.528;2023-07-30T00:13:56;2.92;;;1.08;;
40621;SDS011;26324;52.040;11.528;2023-07-30T00:16:25;1.52;;;0.80;;
40621;SDS011;26324;52.040;11.528;2023-07-30T00:18:53;1.73;;;0.90;;
40621;SDS011;26324;52.040;11.528;2023-07-30T00:21:20;1.25;;;0.95;;
40621;SDS011;26324;52.040;11.528;2023-07-30T00:23:47;1.17;;;1.05;;
40621;SDS011;26324;52.040;11.528;2023-07-30T00:26:15;1.60;;;1.10;;
40621;SDS011;26324;52.040;11.528;2023-07-30T00:28:43;1.98;;;1.17;;
40621;SDS011;26324;52.040;11.528;2023-07-30T00:31:10;2.35;;;1.30;;
40621;SDS011;26324;52.040;11.528;2023-07-30T00:33:37;1.88;;;1.08;;
40621;SDS011;26324;52.040;11.528;2023-07-30T00:36:05;1.70;;;1.00;;
40621;SDS011;26324;52.040;11.528;2023-07-30T00:38:32;2.63;;;1.45;;
40621;SDS011;26324;52.040;11.528;2023-07-30T00:40:59;2.17;;;1.40;;
40621;SDS011;26324;52.040;11.528;2023-07-30T00:43:28;1.63;;;1.20;;
40621;SDS011;26324;52.040;11.528;2023-07-30T00:45:56;3.67;;;1.20;;
40621;SDS011;26324;52.040;11.528;2023-07-30T00:48:23;2.45;;;1.00;;
40621;SDS011;26324;52.040;11.528;2023-07-30T00:50:51;2.05;;;1.15;;
40621;SDS011;26324;52.040;11.528;2023-07-30T00:53:18;2.38;;;1.30;;
40621;SDS011;26324;52.040;11.528;2023-07-30T00:55:48;1.95;;;1.10;;
40621;SDS011;26324;52.040;11.528;2023-07-30T00:58:23;3.08;;;1.45;;
40621;SDS011;26324;52.040;11.528;2023-07-30T01:03:21;3.97;;;1.17;;
40621;SDS011;26324;52.040;11.528;2023-07-30T01:05:49;2.70;;;1.30;;
40621;SDS011;26324;52.040;11.528;2023-07-30T01:08:17;2.38;;;1.30;;
40621;SDS011;26324;52.040;11.528;2023-07-30T01:10:45;2.88;;;1.27;;
40621;SDS011;26324;52.040;11.528;2023-07-30T01:13:13;3.97;;;1.42;;
40621;SDS011;26324;52.040;11.528;2023-07-30T01:15:42;3.45;;;1.70;;
40621;SDS011;26324;52.040;11.528;2023-07-30T01:18:10;3.47;;;1.80;;
40621;SDS011;26324;52.040;11.528;2023-07-30T01:20:38;1.80;;;1.13;;
40621;SDS011;26324;52.040;11.528;2023-07-30T01:23:06;2.03;;;1.38;;
40621;SDS011;26324;52.040;11.528;2023-07-30T01:25:35;2.20;;;1.40;;
40621;SDS011;26324;52.040;11.528;2023-07-30T01:28:04;3.40;;;1.75;;
40621;SDS011;26324;52.040;11.528;2023-07-30T01:30:38;2.17;;;1.48;;
40621;SDS011;26324;52.040;11.528;2023-07-30T01:33:09;1.73;;;1.15;;
40621;SDS011;26324;52.040;11.528;2023-07-30T01:35:38;2.42;;;1.67;;
40621;SDS011;26324;52.040;11.528;2023-07-30T01:38:07;2.20;;;1.30;;
40621;SDS011;26324;52.040;11.528;2023-07-30T01:40:35;2.83;;;1.67;;
40621;SDS011;26324;52.040;11.528;2023-07-30T01:43:02;3.63;;;1.60;;
40621;SDS011;26324;52.040;11.528;2023-07-30T01:45:30;1.75;;;1.02;;
40621;SDS011;26324;52.040;11.528;2023-07-30T01:47:58;2.00;;;1.40;;
40621;SDS011;26324;52.040;11.528;2023-07-30T01:50:26;2.13;;;1.15;;
40621;SDS011;26324;52.040;11.528;2023-07-30T01:52:53;2.35;;;1.40;;
40621;SDS011;26324;52.040;11.528;2023-07-30T01:55:20;2.70;;;1.38;;
40621;SDS011;26324;52.040;11.528;2023-07-30T01:57:48;2.30;;;1.60;;
40621;SDS011;26324;52.040;11.528;2023-07-30T02:00:15;2.10;;;1.40;;
40621;SDS011;26324;52.040;11.528;2023-07-30T02:02:42;4.43;;;2.28;;
40621;SDS011;26324;52.040;11.528;2023-07-30T02:05:10;3.53;;;1.40;;
40621;SDS011;26324;52.040;11.528;2023-07-30T02:07:40;3.63;;;1.67;;
40621;SDS011;26324;52.040;11.528;2023-07-30T02:10:08;3.20;;;1.50;;
40621;SDS011;26324;52.040;11.528;2023-07-30T02:12:35;2.45;;;1.75;;
40621;SDS011;26324;52.040;11.528;2023-07-30T02:15:02;3.40;;;1.55;;
40621;SDS011;26324;52.040;11.528;2023-07-30T02:20:09;2.75;;;1.83;;
40621;SDS011;26324;52.040;11.528;2023-07-30T02:22:37;2.92;;;1.83;;
40621;SDS011;26324;52.040;11.528;2023-07-30T02:25:04;2.95;;;1.90;;
40621;SDS011;26324;52.040;11.528;2023-07-30T02:27:32;2.85;;;1.63;;
40621;SDS011;26324;52.040;11.528;2023-07-30T02:29:59;2.65;;;1.83;;
40621;SDS011;26324;52.040;11.528;2023-07-30T02:32:26;4.10;;;2.28;;
40621;SDS011;26324;52.040;11.528;2023-07-30T02:34:54;2.72;;;1.60;;
40621;SDS011;26324;52.040;11.528;2023-07-30T02:37:21;3.85;;;1.95;;
40621;SDS011;26324;52.040;11.528;2023-07-30T02:39:48;2.83;;;1.80;;
40621;SDS011;26324;52.040;11.528;2023-07-30T02:42:16;2.85;;;1.48;;
40621;SDS011;26324;52.040;11.528;2023-07-30T02:44:43;2.85;;;1.63;;
40621;SDS011;26324;52.040;11.528;2023-07-30T02:47:10;2.28;;;1.75;;
40621;SDS011;26324;52.040;11.528;2023-07-30T02:49:38;2.95;;;1.92;;
40621;SDS011;26324;52.040;11.528;2023-07-30T02:52:06;2.10;;;1.60;;
40621;SDS011;26324;52.040;11.528;2023-07-30T02:54:33;2.38;;;1.75;;
40621;SDS011;26324;52.040;11.528;2023-07-30T02:57:00;2.15;;;1.58;;
40621;SDS011;26324;52.040;11.528;2023-07-30T02:59:28;2.25;;;1.70;;
40621;SDS011;26324;52.040;11.528;2023-07-30T03:01:55;3.10;;;1.80;;
40621;SDS011;26324;52.040;11.528;2023-07-30T03:04:23;3.65;;;1.90;;
40621;SDS011;26324;52.040;11.528;2023-07-30T03:06:50;3.75;;;2.10;;
40621;SDS011;26324;52.040;11.528;2023-07-30T03:09:18;2.60;;;1.77;;
40621;SDS011;26324;52.040;11.528;2023-07-30T03:11:45;2.75;;;1.80;;
40621;SDS011;26324;52.040;11.528;2023-07-30T03:14:13;3.35;;;2.03;;
40621;SDS011;26324;52.040;11.528;2023-07-30T03:16:40;6.10;;;2.00;;
40621;SDS011;26324;52.040;11.528;2023-07-30T03:19:08;2.30;;;1.90;;
40621;SDS011;26324;52.040;11.528;2023-07-30T03:21:35;2.10;;;1.65;;
40621;SDS011;26324;52.040;11.528;2023-07-30T03:24:03;2.72;;;1.73;;
40621;SDS011;26324;52.040;11.528;2023-07-30T03:26:30;1.98;;;1.67;;
40621;SDS011;26324;52.040;11.528;2023-07-30T03:28:58;2.33;;;1.60;;
40621;SDS011;26324;52.040;11.528;2023-07-30T03:31:25;3.95;;;1.50;;
40621;SDS011;26324;52.040;11.528;2023-07-30T03:33:53;2.88;;;1.48;;
40621;SDS011;26324;52.040;11.528;2023-07-30T03:36:20;3.33;;;1.75;;
40621;SDS011;26324;52.040;11.528;2023-07-30T03:38:48;2.40;;;1.75;;
40621;SDS011;26324;52.040;11.528;2023-07-30T03:41:16;3.78;;;1.75;;
40621;SDS011;26324;52.040;11.528;2023-07-30T03:43:43;2.72;;;1.77;;
40621;SDS011;26324;52.040;11.528;2023-07-30T03:46:11;2.40;;;1.55;;
40621;SDS011;26324;52.040;11.528;2023-07-30T03:48:38;2.10;;;1.55;;
40621;SDS011;26324;52.040;11.528;2023-07-30T03:51:05;2.13;;;1.50;;
40621;SDS011;26324;52.040;11.528;2023-07-30T03:53:34;3.30;;;1.65;;
40621;SDS011;26324;52.040;11.528;2023-07-30T03:56:01;2.03;;;1.60;;
40621;SDS011;26324;52.040;11.528;2023-07-30T03:58:29;3.22;;;1.55;;
40621;SDS011;26324;52.040;11.528;2023-07-30T04:00:57;3.72;;;1.55;;
40621;SDS011;26324;52.040;11.528;2023-07-30T04:03:24;2.83;;;1.83;;
40621;SDS011;26324;52.040;11.528;2023-07-30T04:05:52;2.53;;;1.55;;
40621;SDS011;26324;52.040;11.528;2023-07-30T04:08:20;2.20;;;1.73;;
40621;SDS011;26324;52.040;11.528;2023-07-30T04:10:48;2.72;;;1.90;;
40621;SDS011;26324;52.040;11.528;2023-07-30T04:13:16;3.25;;;1.55;;
40621;SDS011;26324;52.040;11.528;2023-07-30T04:15:43;3.60;;;1.65;;
40621;SDS011;26324;52.040;11.528;2023-07-30T04:18:10;1.98;;;1.30;;
40621;SDS011;26324;52.040;11.528;2023-07-30T04:20:38;3.50;;;1.52;;
40621;SDS011;26324;52.040;11.528;2023-07-30T04:23:05;3.22;;;1.58;;
40621;SDS011;26324;52.040;11.528;2023-07-30T04:25:33;2.50;;;1.52;;
40621;SDS011;26324;52.040;11.528;2023-07-30T04:28:00;3.40;;;1.88;;
40621;SDS011;26324;52.040;11.528;2023-07-30T04:30:27;1.88;;;1.20;;
40621;SDS011;26324;52.040;11.528;2023-07-30T04:32:55;2.60;;;1.95;;
40621;SDS011;26324;52.040;11.528;2023-07-30T04:35:22;2.80;;;1.65;;
40621;SDS011;26324;52.040;11.528;2023-07-30T04:37:50;1.45;;;1.05;;
40621;SDS011;26324;52.040;11.528;2023-07-30T04:40:18;2.42;;;1.40;;
40621;SDS011;26324;52.040;11.528;2023-07-30T04:42:45;3.40;;;1.48;;
40621;SDS011;26324;52.040;11.528;2023-07-30T04:45:13;1.63;;;1.20;;
40621;SDS011;26324;52.040;11.528;2023-07-30T04:47:43;1.75;;;1.27;;
40621;SDS011;26324;52.040;11.528;2023-07-30T04:50:11;3.45;;;1.70;;
40621;SDS011;26324;52.040;11.528;2023-07-30T04:52:38;1.45;;;1.30;;
40621;SDS011;26324;52.040;11.528;2023-07-30T04:55:06;2.05;;;1.40;;
40621;SDS011;26324;52.040;11.528;2023-07-30T04:57:33;2.95;;;1.52;;
40621;SDS011;26324;52.040;11.528;2023-07-30T05:00:01;2.85;;;1.63;;
40621;SDS011;26324;52.040;11.528;2023-07-30T05:02:29;3.28;;;1.20;;
40621;SDS011;26324;52.040;11.528;2023-07-30T05:04:57;1.77;;;1.40;;
40621;SDS011;26324;52.040;11.528;2023-07-30T05:07:24;2.63;;;1.30;;
40621;SDS011;26324;52.040;11.528;2023-07-30T05:09:51;4.13;;;1.73;;
40621;SDS011;26324;52.040;11.528;2023-07-30T05:12:22;2.63;;;1.10;;
40621;SDS011;26324;52.040;11.528;2023-07-30T05:14:49;2.03;;;1.40;;
40621;SDS011;26324;52.040;11.528;2023-07-30T05:17:16;1.92;;;1.35;;
40621;SDS011;26324;52.040;11.528;2023-07-30T05:19:44;1.65;;;1.27;;
40621;SDS011;26324;52.040;11.528;2023-07-30T05:22:11;2.17;;;0.90;;
40621;SDS011;26324;52.040;11.528;2023-07-30T05:24:38;1.88;;;1.20;;
40621;SDS011;26324;52.040;11.528;2023-07-30T05:27:06;2.08;;;1.38;;
40621;SDS011;26324;52.040;11.528;2023-07-30T05:29:33;2.25;;;1.35;;
40621;SDS011;26324;52.040;11.528;2023-07-30T05:32:01;3.75;;;1.45;;
40621;SDS011;26324;52.040;11.528;2023-07-30T05:34:28;2.38;;;1.23;;
40621;SDS011;26324;52.040;11.528;2023-07-30T05:36:56;2.55;;;1.13;;
40621;SDS011;26324;52.040;11.528;2023-07-30T05:39:23;2.67;;;1.35;;
40621;SDS011;26324;52.040;11.528;2023-07-30T05:41:50;4.38;;;1.33;;
40621;SDS011;26324;52.040;11.528;2023-07-30T05:44:18;2.38;;;1.10;;
40621;SDS011;26324;52.040;11.528;2023-07-30T05:46:45;2.22;;;1.15;;
40621;SDS011;26324;52.040;11.528;2023-07-30T05:49:14;2.13;;;1.45;;
40621;SDS011;26324;52.040;11.528;2023-07-30T05:51:42;5.18;;;1.20;;
40621;SDS011;26324;52.040;11.528;2023-07-30T05:54:09;2.58;;;1.15;;
40621;SDS011;26324;52.040;11.528;2023-07-30T05:56:36;2.60;;;1.10;;
40621;SDS011;26324;52.040;11.528;2023-07-30T05:59:04;1.42;;;0.80;;
40621;SDS011;26324;52.040;11.528;2023-07-30T06:01:31;1.90;;;0.95;;
40621;SDS011;26324;52.040;11.528;2023-07-30T06:03:58;2.75;;;1.55;;
40621;SDS011;26324;52.040;11.528;2023-07-30T06:06:29;3.30;;;1.00;;
40621;SDS011;26324;52.040;11.528;2023-07-30T06:08:56;3.50;;;1.13;;
40621;SDS011;26324;52.040;11.528;2023-07-30T06:11:24;2.40;;;1.45;;
40621;SDS011;26324;52.040;11.528;2023-07-30T06:13:52;3.15;;;1.25;;
40621;SDS011;26324;52.040;11.528;2023-07-30T06:16:19;1.50;;;1.10;;
40621;SDS011;26324;52.040;11.528;2023-07-30T06:18:55;2.00;;;1.13;;
40621;SDS011;26324;52.040;11.528;2023-07-30T06:21:23;5.80;;;1.45;;
40621;SDS011;26324;52.040;11.528;2023-07-30T06:23:55;2.42;;;1.17;;
40621;SDS011;26324;52.040;11.528;2023-07-30T06:26:25;1.77;;;0.93;;
40621;SDS011;26324;52.040;11.528;2023-07-30T06:28:53;1.80;;;1.10;;
40621;SDS011;26324;52.040;11.528;2023-07-30T06:31:21;2.28;;;0.88;;
40621;SDS011;26324;52.040;11.528;2023-07-30T06:33:48;3.92;;;1.23;;
40621;SDS011;26324;52.040;11.528;2023-07-30T06:36:17;3.72;;;1.15;;
40621;SDS011;26324;52.040;11.528;2023-07-30T06:38:45;4.57;;;1.17;;
40621;SDS011;26324;52.040;11.528;2023-07-30T06:41:14;3.72;;;1.33;;
40621;SDS011;26324;52.040;11.528;2023-07-30T06:43:42;4.93;;;1.75;;
40621;SDS011;26324;52.040;11.528;2023-07-30T06:46:09;4.07;;;1.50;;
40621;SDS011;26324;52.040;11.528;2023-07-30T06:48:36;3.15;;;1.20;;
40621;SDS011;26324;52.040;11.528;2023-07-30T06:51:10;3.88;;;1.55;;
40621;SDS011;26324;52.040;11.528;2023-07-30T06:53:58;7.00;;;1.55;;
40621;SDS011;26324;52.040;11.528;2023-07-30T06:56:25;2.53;;;1.38;;
40621;SDS011;26324;52.040;11.528;2023-07-30T06:58:52;2.60;;;1.63;;
40621;SDS011;26324;52.040;11.528;2023-07-30T07:01:20;2.75;;;1.20;;
40621;SDS011;26324;52.040;11.528;2023-07-30T07:03:47;5.10;;;1.70;;
40621;SDS011;26324;52.040;11.528;2023-07-30T07:06:23;4.70;;;1.42;;
40621;SDS011;26324;52.040;11.528;2023-07-30T07:08:50;2.83;;;1.20;;
40621;SDS011;26324;52.040;11.528;2023-07-30T07:11:18;4.10;;;1.42;;
40621;SDS011;26324;52.040;11.528;2023-07-30T07:13:45;4.13;;;1.35;;
40621;SDS011;26324;52.040;11.528;2023-07-30T07:16:12;6.55;;;1.30;;
40621;SDS011;26324;52.040;11.528;2023-07-30T07:18:40;7.38;;;1.70;;
40621;SDS011;26324;52.040;11.528;2023-07-30T07:21:07;5.70;;;2.08;;
40621;SDS011;26324;52.040;11.528;2023-07-30T07:23:35;3.92;;;1.95;;
40621;SDS011;26324;52.040;11.528;2023-07-30T07:26:02;5.35;;;1.95;;
40621;SDS011;26324;52.040;11.528;2023-07-30T07:28:30;3.85;;;1.67;;
40621;SDS011;26324;52.040;11.528;2023-07-30T07:30:57;6.15;;;2.13;;
40621;SDS011;26324;52.040;11.528;2023-07-30T07:33:24;2.30;;;1.70;;
40621;SDS011;26324;52.040;11.528;2023-07-30T07:36:02;2.55;;;1.73;;
40621;SDS011;26324;52.040;11.528;2023-07-30T07:38:31;3.40;;;1.70;;
40621;SDS011;26324;52.040;11.528;2023-07-30T07:40:59;2.65;;;1.73;;
40621;SDS011;26324;52.040;11.528;2023-07-30T07:43:27;2.58;;;1.58;;
40621;SDS011;26324;52.040;11.528;2023-07-30T07:45:55;3.60;;;1.80;;
40621;SDS011;26324;52.040;11.528;2023-07-30T07:48:22;3.55;;;1.63;;
40621;SDS011;26324;52.040;11.528;2023-07-30T07:50:50;2.55;;;1.60;;
40621;SDS011;26324;52.040;11.528;2023-07-30T07:53:17;3.35;;;1.88;;
40621;SDS011;26324;52.040;11.528;2023-07-30T07:55:48;6.80;;;1.50;;
40621;SDS011;26324;52.040;11.528;2023-07-30T07:58:15;3.38;;;1.90;;
40621;SDS011;26324;52.040;11.528;2023-07-30T08:00:43;3.83;;;1.83;;
40621;SDS011;26324;52.040;11.528;2023-07-30T08:03:11;2.53;;;1.63;;
40621;SDS011;26324;52.040;11.528;2023-07-30T08:08:07;4.07;;;1.75;;
40621;SDS011;26324;52.040;11.528;2023-07-30T08:10:50;3.08;;;1.83;;
40621;SDS011;26324;52.040;11.528;2023-07-30T08:13:18;5.30;;;1.80;;
40621;SDS011;26324;52.040;11.528;2023-07-30T08:15:49;4.75;;;1.88;;
40621;SDS011;26324;52.040;11.528;2023-07-30T08:18:16;2.83;;;1.40;;
40621;SDS011;26324;52.040;11.528;2023-07-30T08:20:44;3.28;;;1.50;;
40621;SDS011;26324;52.040;11.528;2023-07-30T08:23:11;1.83;;;1.58;;
40621;SDS011;26324;52.040;11.528;2023-07-30T08:25:42;2.38;;;1.70;;
40621;SDS011;26324;52.040;11.528;2023-07-30T08:28:09;3.13;;;1.58;;
40621;SDS011;26324;52.040;11.528;2023-07-30T08:30:37;3.63;;;1.73;;
40621;SDS011;26324;52.040;11.528;2023-07-30T08:33:04;2.45;;;1.80;;
40621;SDS011;26324;52.040;11.528;2023-07-30T08:35:32;2.30;;;1.60;;
40621;SDS011;26324;52.040;11.528;2023-07-30T08:37:59;3.03;;;1.33;;
40621;SDS011;26324;52.040;11.528;2023-07-30T08:40:27;3.33;;;1.40;;
40621;SDS011;26324;52.040;11.528;2023-07-30T08:42:56;1.90;;;1.17;;
40621;SDS011;26324;52.040;11.528;2023-07-30T08:45:25;1.17;;;0.85;;
40621;SDS011;26324;52.040;11.528;2023-07-30T08:47:53;2.80;;;1.10;;
40621;SDS011;26324;52.040;11.528;2023-07-30T08:50:20;3.20;;;1.08;;
40621;SDS011;26324;52.040;11.528;2023-07-30T08:52:48;1.95;;;1.20;;
40621;SDS011;26324;52.040;11.528;2023-07-30T08:57:45;2.65;;;1.23;;
40621;SDS011;26324;52.040;11.528;2023-07-30T09:00:14;1.80;;;1.13;;
40621;SDS011;26324;52.040;11.528;2023-07-30T09:02:45;1.35;;;0.52;;
40621;SDS011;26324;52.040;11.528;2023-07-30T09:05:15;1.92;;;1.10;;
40621;SDS011;26324;52.040;11.528;2023-07-30T09:07:43;0.90;;;0.70;;
40621;SDS011;26324;52.040;11.528;2023-07-30T09:10:11;1.42;;;0.80;;
40621;SDS011;26324;52.040;11.528;2023-07-30T09:12:40;1.73;;;0.93;;
40621;SDS011;26324;52.040;11.528;2023-07-30T09:15:08;2.20;;;0.70;;
40621;SDS011;26324;52.040;11.528;2023-07-30T09:17:35;1.23;;;0.70;;
40621;SDS011;26324;52.040;11.528;2023-07-30T09:20:03;2.40;;;1.00;;
40621;SDS011;26324;52.040;11.528;2023-07-30T09:22:33;1.70;;;0.77;;
40621;SDS011;26324;52.040;11.528;2023-07-30T09:25:07;1.05;;;0.70;;
40621;SDS011;26324;52.040;11.528;2023-07-30T09:27:35;2.28;;;0.77;;
40621;SDS011;26324;52.040;11.528;2023-07-30T09:30:03;1.55;;;0.90;;
40621;SDS011;26324;52.040;11.528;2023-07-30T09:32:33;1.88;;;0.63;;
40621;SDS011;26324;52.040;11.528;2023-07-30T09:35:05;1.55;;;0.77;;
40621;SDS011;26324;52.040;11.528;2023-07-30T09:37:38;0.80;;;0.50;;
40621;SDS011;26324;52.040;11.528;2023-07-30T09:40:08;1.23;;;0.60;;
40621;SDS011;26324;52.040;11.528;2023-07-30T09:42:36;1.33;;;0.50;;
40621;SDS011;26324;52.040;11.528;2023-07-30T09:45:07;1.08;;;0.52;;
40621;SDS011;26324;52.040;11.528;2023-07-30T09:47:46;1.15;;;0.60;;
40621;SDS011;26324;52.040;11.528;2023-07-30T09:50:15;1.60;;;0.77;;
40621;SDS011;26324;52.040;11.528;2023-07-30T09:52:42;2.25;;;0.82;;
40621;SDS011;26324;52.040;11.528;2023-07-30T09:55:10;0.90;;;0.47;;
40621;SDS011;26324;52.040;11.528;2023-07-30T09:57:38;1.65;;;0.60;;
40621;SDS011;26324;52.040;11.528;2023-07-30T10:00:06;1.30;;;0.70;;
40621;SDS011;26324;52.040;11.528;2023-07-30T10:02:37;1.67;;;0.60;;
40621;SDS011;26324;52.040;11.528;2023-07-30T10:05:19;0.80;;;0.60;;
40621;SDS011;26324;52.040;11.528;2023-07-30T10:10:27;0.88;;;0.57;;
40621;SDS011;26324;52.040;11.528;2023-07-30T10:12:57;2.42;;;0.70;;
40621;SDS011;26324;52.040;11.528;2023-07-30T10:15:27;3.08;;;0.77;;
40621;SDS011;26324;52.040;11.528;2023-07-30T10:17:56;1.35;;;0.60;;
40621;SDS011;26324;52.040;11.528;2023-07-30T10:20:27;1.88;;;0.80;;
40621;SDS011;26324;52.040;11.528;2023-07-30T10:22:57;1.38;;;0.57;;
40621;SDS011;26324;52.040;11.528;2023-07-30T10:25:45;2.17;;;0.70;;
40621;SDS011;26324;52.040;11.528;2023-07-30T10:31:00;3.47;;;0.80;;
40621;SDS011;26324;52.040;11.528;2023-07-30T10:33:47;1.38;;;0.80;;
40621;SDS011;26324;52.040;11.528;2023-07-30T10:36:30;0.90;;;0.57;;
40621;SDS011;26324;52.040;11.528;2023-07-30T10:38:58;1.33;;;0.60;;
40621;SDS011;26324;52.040;11.528;2023-07-30T10:41:40;1.00;;;0.65;;
40621;SDS011;26324;52.040;11.528;2023-07-30T10:44:33;2.15;;;0.68;;
40621;SDS011;26324;52.040;11.528;2023-07-30T10:47:00;1.58;;;0.77;;
40621;SDS011;26324;52.040;11.528;2023-07-30T10:49:28;2.28;;;0.70;;
40621;SDS011;26324;52.040;11.528;2023-07-30T10:51:56;2.08;;;0.90;;
40621;SDS011;26324;52.040;11.528;2023-07-30T10:54:24;1.77;;;0.65;;
40621;SDS011;26324;52.040;11.528;2023-07-30T10:56:52;2.75;;;0.65;;
40621;SDS011;26324;52.040;11.528;2023-07-30T10:59:21;2.33;;;0.82;;
40621;SDS011;26324;52.040;11.528;2023-07-30T11:01:49;1.63;;;0.70;;
40621;SDS011;26324;52.040;11.528;2023-07-30T11:04:17;1.85;;;0.65;;
40621;SDS011;26324;52.040;11.528;2023-07-30T11:06:46;1.85;;;0.63;;
40621;SDS011;26324;52.040;11.528;2023-07-30T11:09:23;1.42;;;0.70;;
40621;SDS011;26324;52.040;11.528;2023-07-30T11:11:53;1.88;;;0.75;;
40621;SDS011;26324;52.040;11.528;2023-07-30T11:14:23;1.80;;;0.68;;
40621;SDS011;26324;52.040;11.528;2023-07-30T11:16:59;1.88;;;0.88;;
40621;SDS011;26324;52.040;11.528;2023-07-30T11:19:29;2.55;;;0.63;;
40621;SDS011;26324;52.040;11.528;2023-07-30T11:22:11;1.55;;;0.90;;
40621;SDS011;26324;52.040;11.528;2023-07-30T11:24:38;1.25;;;0.60;;
40621;SDS011;26324;52.040;11.528;2023-07-30T11:27:06;1.02;;;0.70;;
40621;SDS011;26324;52.040;11.528;2023-07-30T11:29:33;2.35;;;0.60;;
40621;SDS011;26324;52.040;11.528;2023-07-30T11:32:01;2.25;;;0.60;;
40621;SDS011;26324;52.040;11.528;2023-07-30T11:34:30;1.17;;;0.90;;
40621;SDS011;26324;52.040;11.528;2023-07-30T11:37:02;1.23;;;0.77;;
40621;SDS011;26324;52.040;11.528;2023-07-30T11:39:31;1.88;;;0.90;;
40621;SDS011;26324;52.040;11.528;2023-07-30T11:41:59;2.05;;;0.90;;
40621;SDS011;26324;52.040;11.528;2023-07-30T11:44:31;0.98;;;0.50;;
40621;SDS011;26324;52.040;11.528;2023-07-30T11:47:01;1.55;;;0.80;;
40621;SDS011;26324;52.040;11.528;2023-07-30T11:49:31;2.17;;;0.73;;
40621;SDS011;26324;52.040;11.528;2023-07-30T11:52:05;2.95;;;0.80;;
40621;SDS011;26324;52.040;11.528;2023-07-30T11:54:34;1.40;;;0.70;;
40621;SDS011;26324;52.040;11.528;2023-07-30T11:57:02;3.83;;;0.70;;
40621;SDS011;26324;52.040;11.528;2023-07-30T11:59:32;1.58;;;0.80;;
40621;SDS011;26324;52.040;11.528;2023-07-30T12:02:00;1.70;;;0.70;;
40621;SDS011;26324;52.040;11.528;2023-07-30T12:04:38;2.00;;;0.90;;
40621;SDS011;26324;52.040;11.528;2023-07-30T12:07:10;2.17;;;1.00;;
40621;SDS011;26324;52.040;11.528;2023-07-30T12:09:38;2.25;;;0.82;;
40621;SDS011;26324;52.040;11.528;2023-07-30T12:12:05;1.38;;;0.95;;
40621;SDS011;26324;52.040;11.528;2023-07-30T12:17:16;2.20;;;0.80;;
40621;SDS011;26324;52.040;11.528;2023-07-30T12:19:43;1.92;;;0.70;;
40621;SDS011;26324;52.040;11.528;2023-07-30T12:22:10;1.33;;;0.55;;
40621;SDS011;26324;52.040;11.528;2023-07-30T12:24:38;1.10;;;0.50;;
40621;SDS011;26324;52.040;11.528;2023-07-30T12:27:05;1.23;;;0.80;;
40621;SDS011;26324;52.040;11.528;2023-07-30T12:29:33;1.52;;;0.70;;
40621;SDS011;26324;52.040;11.528;2023-07-30T12:32:00;1.33;;;0.60;;
40621;SDS011;26324;52.040;11.528;2023-07-30T12:34:30;2.53;;;1.10;;
40621;SDS011;26324;52.040;11.528;2023-07-30T12:36:57;1.77;;;0.65;;
40621;SDS011;26324;52.040;11.528;2023-07-30T12:39:26;1.23;;;0.70;;
40621;SDS011;26324;52.040;11.528;2023-07-30T12:41:54;2.03;;;0.80;;
40621;SDS011;26324;52.040;11.528;2023-07-30T12:44:21;1.75;;;0.95;;
40621;SDS011;26324;52.040;11.528;2023-07-30T12:46:49;2.17;;;1.00;;
40621;SDS011;26324;52.040;11.528;2023-07-30T12:49:16;3.88;;;1.25;;
40621;SDS011;26324;52.040;11.528;2023-07-30T12:51:43;0.98;;;0.70;;
40621;SDS011;26324;52.040;11.528;2023-07-30T12:54:11;1.20;;;0.63;;
40621;SDS011;26324;52.040;11.528;2023-07-30T12:56:38;2.55;;;1.00;;
40621;SDS011;26324;52.040;11.528;2023-07-30T12:59:06;1.70;;;0.90;;
40621;SDS011;26324;52.040;11.528;2023-07-30T13:01:33;2.30;;;1.08;;
40621;SDS011;26324;52.040;11.528;2023-07-30T13:04:01;3.80;;;1.30;;
40621;SDS011;26324;52.040;11.528;2023-07-30T13:06:28;3.65;;;1.13;;
40621;SDS011;26324;52.040;11.528;2023-07-30T13:08:56;1.63;;;1.00;;
40621;SDS011;26324;52.040;11.528;2023-07-30T13:11:23;1.63;;;0.95;;
40621;SDS011;26324;52.040;11.528;2023-07-30T13:13:50;1.45;;;0.80;;
40621;SDS011;26324;52.040;11.528;2023-07-30T13:16:18;1.58;;;0.80;;
40621;SDS011;26324;52.040;11.528;2023-07-30T13:18:45;1.55;;;0.88;;
40621;SDS011;26324;52.040;11.528;2023-07-30T13:21:12;1.83;;;0.90;;
40621;SDS011;26324;52.040;11.528;2023-07-30T13:23:40;2.60;;;0.80;;
40621;SDS011;26324;52.040;11.528;2023-07-30T13:26:07;1.73;;;0.70;;
40621;SDS011;26324;52.040;11.528;2023-07-30T13:28:34;2.10;;;0.88;;
40621;SDS011;26324;52.040;11.528;2023-07-30T13:31:02;2.45;;;0.70;;
40621;SDS011;26324;52.040;11.528;2023-07-30T13:33:29;2.92;;;1.02;;
40621;SDS011;26324;52.040;11.528;2023-07-30T13:35:57;1.35;;;0.75;;
40621;SDS011;26324;52.040;11.528;2023-07-30T13:38:24;1.30;;;0.80;;
40621;SDS011;26324;52.040;11.528;2023-07-30T13:43:21;2.63;;;0.90;;
40621;SDS011;26324;52.040;11.528;2023-07-30T13:45:48;2.42;;;0.88;;
40621;SDS011;26324;52.040;11.528;2023-07-30T13:48:17;1.42;;;0.63;;
40621;SDS011;26324;52.040;11.528;2023-07-30T13:50:45;1.13;;;0.80;;
40621;SDS011;26324;52.040;11.528;2023-07-30T13:53:12;2.50;;;0.90;;
40621;SDS011;26324;52.040;11.528;2023-07-30T13:55:40;2.67;;;0.93;;
40621;SDS011;26324;52.040;11.528;2023-07-30T13:58:08;2.38;;;0.60;;
40621;SDS011;26324;52.040;11.528;2023-07-30T14:00:35;2.05;;;0.82;;
40621;SDS011;26324;52.040;11.528;2023-07-30T14:03:03;5.28;;;1.00;;
40621;SDS011;26324;52.040;11.528;2023-07-30T14:05:31;3.92;;;0.90;;
40621;SDS011;26324;52.040;11.528;2023-07-30T14:07:58;1.48;;;0.75;;
40621;SDS011;26324;52.040;11.528;2023-07-30T14:10:25;2.28;;;0.80;;
40621;SDS011;26324;52.040;11.528;2023-07-30T14:12:54;1.73;;;0.95;;
40621;SDS011;26324;52.040;11.528;2023-07-30T14:15:21;1.42;;;0.77;;
40621;SDS011;26324;52.040;11.528;2023-07-30T14:17:49;2.25;;;0.80;;
40621;SDS011;26324;52.040;11.528;2023-07-30T14:20:19;0.80;;;0.75;;
40621;SDS011;26324;52.040;11.528;2023-07-30T14:22:46;3.33;;;1.10;;
40621;SDS011;26324;52.040;11.528;2023-07-30T14:25:14;1.48;;;0.80;;
40621;SDS011;26324;52.040;11.528;2023-07-30T14:27:41;4.03;;;1.20;;
40621;SDS011;26324;52.040;11.528;2023-07-30T14:30:08;2.33;;;1.00;;
40621;SDS011;26324;52.040;11.528;2023-07-30T14:32:36;2.45;;;0.80;;
40621;SDS011;26324;52.040;11.528;2023-07-30T14:35:03;1.60;;;0.85;;
40621;SDS011;26324;52.040;11.528;2023-07-30T14:37:31;1.60;;;0.70;;
40621;SDS011;26324;52.040;11.528;2023-07-30T14:39:58;3.53;;;0.98;;
40621;SDS011;26324;52.040;11.528;2023-07-30T14:42:26;3.88;;;0.98;;
40621;SDS011;26324;52.040;11.528;2023-07-30T14:44:53;2.85;;;0.75;;
40621;SDS011;26324;52.040;11.528;2023-07-30T14:47:20;2.47;;;1.02;;
40621;SDS011;26324;52.040;11.528;2023-07-30T14:52:18;2.42;;;0.88;;
40621;SDS011;26324;52.040;11.528;2023-07-30T14:54:45;2.58;;;1.00;;
40621;SDS011;26324;52.040;11.528;2023-07-30T14:57:13;1.92;;;0.90;;
40621;SDS011;26324;52.040;11.528;2023-07-30T14:59:40;3.70;;;0.93;;
40621;SDS011;26324;52.040;11.528;2023-07-30T15:02:08;2.40;;;1.00;;
40621;SDS011;26324;52.040;11.528;2023-07-30T15:04:35;1.77;;;0.90;;